METAR AND TAF INFORMATION
METAR FOR LELL
ADDS - METARS form results

(0444 UTC 18 January 2020)
Data provider http://aviationweather.gov/metar/data/
 
METAR text: LELL 180430Z AUTO VRB01KT 9999 FEW023 05/03 Q1029
Conditions at: LELL (SABADELL , ES) observed 0430 UTC 18 January 2020
Temperature: 5.0°C (41°F)
Dewpoint: 3.0°C (37°F) [RH = 87%]
Pressure (altimeter): 30.38 inches Hg (1029.0 mb)
Winds: variable direction winds at 1 MPH (1 knots; 0.5 m/s)
Visibility: 6 or more miles (10+ km)
Ceiling: at least 12,000 feet AGL
Clouds: few clouds at 2300 feet AGL
Weather: no significant weather observed at this time

METAR text: LELL 180400Z AUTO VRB02KT 9999 BKN021 05/03 Q1029
Conditions at: LELL (SABADELL , ES) observed 0400 UTC 18 January 2020
Temperature: 5.0°C (41°F)
Dewpoint: 3.0°C (37°F) [RH = 87%]
Pressure (altimeter): 30.38 inches Hg (1029.0 mb)
Winds: variable direction winds at 2 MPH (2 knots; 1.0 m/s)
Visibility: 6 or more miles (10+ km)
Ceiling: 2100 feet AGL
Clouds: broken clouds at 2100 feet AGL
Weather: no significant weather observed at this time

Forecast for: LELL (SABADELL , ES)
Text: TAF LELL 180200Z 1803/1903 25005KT 9999 FEW040 TX13/1813Z TN03/1806Z
Forecast period: 0300 UTC 18 January 2020 to 0300 UTC 19 January 2020
Forecast type: FROM: standard forecast or significant change
Winds: from the WSW (250 degrees) at 6 MPH (5 knots; 2.6 m/s)
Visibility: 6 or more miles 10+ km)
Ceiling: at least 12,000 feet AGL
Clouds: few clouds at 4000 feet AGL
Weather: no significant weather forecast for this period
Text: PROB40
Forecast period: 2200 UTC 18 January 2020 to 0300 UTC 19 January 2020
Forecast type: TEMPORARY: The following changes expected for less than half the time period
Visibility: 2.49 miles (4.01 km)
Ceiling: 1400 feet AGL
Clouds: broken clouds at 1400 feet AGL
Weather: RA  (moderate rain)

 AIRPORT MAP

 RUNWAY INFORMATION
Runway 13 Runway length 2953 ft Runway width 0 ft
Runway elevation 485 ft Runway displaced threshold 0 ft Runway heading 0
Runway 31 Runway length 2953 ft Runway width 0 ft
Runway elevation 445 ft Runway displaced threshold 0 ft Runway heading 0

 AIRPORT FREQUENCIES

 AIRPORT NEAR NAVIGATION AIDS
Type NDB Name Sabadell Frequency 367 KHZ



Powered by Virtual Airlines Manager [v2.6.2]